createdAt,value
2023-04-17T00:00:26.434Z,19.50
2023-04-17T00:15:26.605Z,17.70
2023-04-17T00:30:26.620Z,20.70
2023-04-17T00:45:27.138Z,23.10
2023-04-17T01:00:26.971Z,18.50
2023-04-17T01:15:27.360Z,21.60
2023-04-17T01:30:27.286Z,17.60
2023-04-17T01:45:27.437Z,18.90
2023-04-17T02:00:27.638Z,24.30
2023-04-17T02:15:28.418Z,18.60
2023-04-17T02:30:28.990Z,22.40
2023-04-17T02:45:29.071Z,19.70
2023-04-17T03:00:29.322Z,21.50
2023-04-17T03:15:29.325Z,19.40
2023-04-17T03:30:29.495Z,25.80
2023-04-17T03:45:29.907Z,24.20
2023-04-17T04:00:29.655Z,30.00
2023-04-17T04:15:30.166Z,72.60
2023-04-17T04:30:30.204Z,1134.50
2023-04-17T04:45:30.292Z,686.90
2023-04-17T05:00:30.415Z,537.40
2023-04-17T05:15:30.326Z,513.10
2023-04-17T05:30:30.674Z,496.80
2023-04-17T05:45:31.250Z,173.40
2023-04-17T06:00:32.503Z,517.80
2023-04-17T06:15:32.822Z,554.90
2023-04-17T06:30:33.012Z,309.80
2023-04-17T06:45:33.617Z,318.60
2023-04-17T07:00:34.108Z,446.90
2023-04-17T07:15:34.440Z,50.10
2023-04-17T07:30:34.903Z,252.30
2023-04-17T07:45:34.629Z,62.90
2023-04-17T08:00:35.138Z,20.20
2023-04-17T08:15:36.523Z,15.10
2023-04-17T08:30:37.782Z,13.50
2023-04-17T08:45:37.714Z,13.80
2023-04-17T09:00:37.841Z,13.10
2023-04-17T09:15:38.520Z,9.10
2023-04-17T09:30:38.583Z,11.10
2023-04-17T09:45:39.180Z,12.80
2023-04-17T10:00:39.650Z,14.50
2023-04-17T10:15:40.325Z,13.60
2023-04-17T10:30:43.322Z,11.40
2023-04-17T10:45:45.024Z,15.30
2023-04-17T11:00:45.554Z,13.20
2023-04-17T11:15:46.168Z,16.10
2023-04-17T11:30:47.832Z,15.50
2023-04-17T11:45:48.364Z,13.20
2023-04-17T12:00:48.897Z,14.00
2023-04-17T12:15:49.139Z,33.10
2023-04-17T12:30:50.415Z,92.80
2023-04-17T12:45:51.068Z,65.40
2023-04-17T13:00:51.600Z,116.50
2023-04-17T13:15:52.776Z,83.10
2023-04-17T13:30:53.939Z,128.80
2023-04-17T13:45:55.536Z,77.20
2023-04-17T14:00:57.860Z,86.90
2023-04-17T14:15:58.367Z,92.80
2023-04-17T14:30:58.846Z,67.20
2023-04-17T14:45:58.893Z,45.50
2023-04-17T15:00:59.226Z,45.90
2023-04-17T15:15:59.290Z,45.50
2023-04-17T15:30:59.524Z,43.30
2023-04-17T15:46:00.183Z,34.00
2023-04-17T16:01:01.133Z,44.60
2023-04-17T16:16:01.971Z,44.50
2023-04-17T16:31:03.187Z,41.40
2023-04-17T16:46:14.446Z,50.20
2023-04-17T17:01:09.855Z,41.50
2023-04-17T17:16:10.893Z,43.50
2023-04-17T17:31:11.102Z,45.80
2023-04-17T17:46:11.128Z,21.60
2023-04-17T18:01:11.239Z,18.20
2023-04-17T18:16:11.324Z,21.50
2023-04-17T18:31:11.793Z,23.40
2023-04-17T18:46:11.889Z,22.40
2023-04-17T19:01:11.617Z,23.30
2023-04-17T19:16:12.133Z,23.60
2023-04-17T19:31:12.272Z,29.00
2023-04-17T19:46:12.818Z,26.50
2023-04-17T20:01:13.887Z,26.20
2023-04-17T20:16:14.506Z,30.10
2023-04-17T20:31:14.649Z,27.90
2023-04-17T20:46:14.704Z,27.70
2023-04-17T21:01:15.224Z,26.60
2023-04-17T21:16:15.428Z,24.50
2023-04-17T21:31:16.400Z,28.70
2023-04-17T21:46:16.123Z,24.80
2023-04-17T22:01:16.239Z,22.80
2023-04-17T22:16:16.824Z,20.90
2023-04-17T22:31:16.891Z,20.50
2023-04-17T22:46:17.090Z,21.30
2023-04-17T23:01:17.291Z,21.00
2023-04-17T23:16:17.976Z,21.90
2023-04-17T23:31:18.866Z,24.20
2023-04-17T23:46:19.508Z,19.80
